Time;durP1;ratioP1;P1;durP2;ratioP2;P2;SDS_P1;SDS_P2;PMS_P1;PMS_P2;Temp;Humidity;BMP_temperature;BMP_pressure;BME280_temperature;BME280_humidity;BME280_pressure;Samples;Min_cycle;Max_cycle;Signal;HPM_P1;HPM_P2
2022/05/15 00:02:09;;;;;;;;;;;19.20;52.00;;;;;;5051703;28;19954;-73
2022/05/15 00:04:36;;;;;;;;;;;19.20;52.10;;;;;;5061437;28;19944;-74
2022/05/15 00:07:04;;;;;;;;;;;19.20;52.20;;;;;;5057128;28;19928;-77
2022/05/15 00:09:30;;;;;;;;;;;19.10;52.20;;;;;;5055030;28;19928;-75
2022/05/15 00:11:57;;;;;;;;;;;19.10;52.50;;;;;;5058130;28;19936;-77
2022/05/15 00:14:24;;;;;;;;;;;19.10;52.50;;;;;;5059204;28;19940;-75
2022/05/15 00:16:50;;;;;;;;;;;19.00;52.60;;;;;;5060814;28;19975;-73
2022/05/15 00:19:17;;;;;;;;;;;19.00;52.90;;;;;;5058756;28;19967;-74
2022/05/15 00:21:44;;;;;;;;;;;18.90;52.80;;;;;;5062901;28;19940;-75
2022/05/15 00:24:12;;;;;;;;;;;18.90;52.90;;;;;;5058061;28;19929;-74
2022/05/15 00:26:38;;;;;;;;;;;18.90;53.00;;;;;;5056108;28;20004;-76
2022/05/15 00:29:05;;;;;;;;;;;18.80;53.00;;;;;;5056961;28;19928;-74
2022/05/15 00:31:32;;;;;;;;;;;18.80;53.10;;;;;;5054607;28;19935;-75
2022/05/15 00:33:58;;;;;;;;;;;18.70;53.20;;;;;;5057226;28;19928;-75
2022/05/15 00:36:25;;;;;;;;;;;18.70;53.30;;;;;;5055997;28;19935;-74
2022/05/15 00:38:51;;;;;;;;;;;18.70;53.40;;;;;;5054735;28;19941;-74
2022/05/15 00:41:19;;;;;;;;;;;18.60;53.60;;;;;;5058730;28;19936;-77
2022/05/15 00:43:47;;;;;;;;;;;18.60;53.50;;;;;;5055340;28;19932;-74
2022/05/15 00:46:16;;;;;;;;;;;18.60;53.70;;;;;;5057275;28;19955;-74
2022/05/15 00:48:42;;;;;;;;;;;18.50;53.70;;;;;;5059023;28;19929;-75
2022/05/15 00:51:12;;;;;;;;;;;18.50;53.80;;;;;;5053779;28;19936;-75
2022/05/15 00:53:39;;;;;;;;;;;18.40;53.90;;;;;;5059629;28;19928;-75
2022/05/15 00:56:06;;;;;;;;;;;18.40;53.90;;;;;;5054010;28;19935;-74
2022/05/15 00:58:37;;;;;;;;;;;18.40;54.00;;;;;;5052183;28;19932;-77
2022/05/15 01:01:04;;;;;;;;;;;18.30;54.10;;;;;;5057842;28;19929;-74
2022/05/15 01:03:31;;;;;;;;;;;18.30;54.20;;;;;;5059349;28;19928;-77
2022/05/15 01:05:58;;;;;;;;;;;18.30;54.30;;;;;;5055962;28;19928;-74
2022/05/15 01:08:27;;;;;;;;;;;18.20;54.20;;;;;;5055019;28;19936;-74
2022/05/15 01:10:54;;;;;;;;;;;18.10;54.20;;;;;;5055823;28;20344;-75
2022/05/15 01:13:22;;;;;;;;;;;18.10;54.50;;;;;;5058245;28;19925;-73
2022/05/15 01:15:50;;;;;;;;;;;18.10;54.50;;;;;;5055794;28;20419;-74
2022/05/15 01:18:21;;;;;;;;;;;18.00;54.60;;;;;;5057591;28;19936;-73
2022/05/15 01:20:48;;;;;;;;;;;18.00;54.60;;;;;;5060129;28;19980;-74
2022/05/15 01:23:16;;;;;;;;;;;18.00;54.60;;;;;;5053356;28;20566;-77
2022/05/15 01:25:42;;;;;;;;;;;18.00;54.80;;;;;;5054513;28;19994;-74
2022/05/15 01:28:11;;;;;;;;;;;17.90;54.70;;;;;;5055246;28;19928;-74
2022/05/15 01:30:41;;;;;;;;;;;17.90;54.80;;;;;;5058790;28;19940;-74
2022/05/15 01:33:08;;;;;;;;;;;17.90;55.00;;;;;;5054638;28;19929;-75
2022/05/15 01:35:34;;;;;;;;;;;17.90;55.00;;;;;;5052943;28;20752;-74
2022/05/15 01:38:01;;;;;;;;;;;17.80;55.10;;;;;;5055610;28;19951;-75
2022/05/15 01:40:29;;;;;;;;;;;17.80;55.10;;;;;;5053061;28;19928;-75
2022/05/15 01:42:56;;;;;;;;;;;17.70;55.20;;;;;;5053303;28;19928;-74
2022/05/15 01:45:22;;;;;;;;;;;17.70;55.20;;;;;;5056534;28;19928;-74
2022/05/15 01:47:49;;;;;;;;;;;17.70;55.40;;;;;;5053494;28;19928;-73
2022/05/15 01:50:16;;;;;;;;;;;17.70;55.40;;;;;;5052184;28;19943;-76
2022/05/15 01:52:42;;;;;;;;;;;17.60;55.60;;;;;;5057905;28;20383;-75
2022/05/15 01:55:10;;;;;;;;;;;17.60;55.60;;;;;;5056053;28;19928;-73
2022/05/15 01:57:38;;;;;;;;;;;17.60;55.60;;;;;;5052744;28;19929;-73
2022/05/15 02:00:06;;;;;;;;;;;17.50;55.70;;;;;;5053561;28;19928;-74
2022/05/15 02:02:32;;;;;;;;;;;17.50;55.80;;;;;;5055290;28;19935;-76
2022/05/15 02:05:00;;;;;;;;;;;17.40;55.90;;;;;;5053899;28;21319;-75
2022/05/15 02:07:27;;;;;;;;;;;17.40;56.00;;;;;;5057098;28;19939;-73
2022/05/15 02:09:54;;;;;;;;;;;17.40;56.10;;;;;;5058886;28;19940;-74
2022/05/15 02:12:20;;;;;;;;;;;17.30;56.10;;;;;;5060137;28;19936;-74
2022/05/15 02:14:48;;;;;;;;;;;17.30;56.10;;;;;;5057620;28;19928;-73
2022/05/15 02:17:15;;;;;;;;;;;17.30;56.30;;;;;;5038643;28;19925;-75
2022/05/15 02:19:41;;;;;;;;;;;17.30;56.30;;;;;;5043366;28;19932;-75
2022/05/15 02:22:08;;;;;;;;;;;17.20;56.30;;;;;;5039875;28;19932;-74
2022/05/15 02:24:34;;;;;;;;;;;17.20;56.40;;;;;;5040319;28;19939;-74
2022/05/15 02:27:01;;;;;;;;;;;17.20;56.40;;;;;;5038103;28;19935;-75
2022/05/15 02:29:27;;;;;;;;;;;17.20;56.50;;;;;;5040433;28;19936;-74
2022/05/15 02:31:55;;;;;;;;;;;17.10;56.60;;;;;;5038226;28;19932;-74
2022/05/15 02:34:22;;;;;;;;;;;17.10;56.60;;;;;;5043519;28;19932;-74
2022/05/15 02:36:48;;;;;;;;;;;17.10;56.70;;;;;;5035307;28;19928;-74
2022/05/15 02:39:15;;;;;;;;;;;17.10;56.80;;;;;;5038761;28;19924;-76
2022/05/15 02:41:41;;;;;;;;;;;17.00;56.70;;;;;;5041644;28;19928;-74
2022/05/15 02:44:08;;;;;;;;;;;17.00;56.80;;;;;;5037498;28;19932;-76
2022/05/15 02:46:35;;;;;;;;;;;17.00;56.90;;;;;;5041568;28;20400;-74
2022/05/15 02:51:47;;;;;;;;;;;16.90;57.00;;;;;;5037593;28;20352;-74
2022/05/15 02:54:14;;;;;;;;;;;16.80;57.00;;;;;;5041037;28;19968;-76
2022/05/15 02:56:40;;;;;;;;;;;16.90;57.10;;;;;;5041144;28;19936;-75
2022/05/15 02:59:07;;;;;;;;;;;16.80;57.20;;;;;;5038203;28;19929;-74
2022/05/15 03:01:34;;;;;;;;;;;16.80;57.20;;;;;;5038837;28;19937;-73
2022/05/15 03:04:03;;;;;;;;;;;16.70;57.20;;;;;;5041728;28;20426;-76
2022/05/15 03:06:29;;;;;;;;;;;16.70;57.20;;;;;;5041764;28;19935;-74
2022/05/15 03:08:57;;;;;;;;;;;16.70;57.80;;;;;;5038689;28;19928;-74
2022/05/15 03:11:23;;;;;;;;;;;16.70;57.30;;;;;;5040305;28;20009;-75
2022/05/15 03:13:50;;;;;;;;;;;16.60;57.20;;;;;;5038888;28;19936;-74
2022/05/15 03:16:17;;;;;;;;;;;16.60;57.30;;;;;;5048169;28;20342;-74
2022/05/15 03:18:46;;;;;;;;;;;16.60;57.50;;;;;;5060538;28;20008;-73
2022/05/15 03:21:28;;;;;;;;;;;16.60;57.50;;;;;;5061758;28;19940;-74
2022/05/15 03:23:55;;;;;;;;;;;16.50;57.50;;;;;;5056705;28;20430;-74
2022/05/15 03:26:21;;;;;;;;;;;16.50;57.70;;;;;;5058594;28;19951;-73
2022/05/15 03:28:48;;;;;;;;;;;16.50;57.70;;;;;;5056986;28;19932;-74
2022/05/15 03:31:15;;;;;;;;;;;16.40;57.70;;;;;;5051325;28;19929;-76
2022/05/15 03:33:41;;;;;;;;;;;16.40;57.80;;;;;;5042032;28;19929;-73
2022/05/15 03:36:10;;;;;;;;;;;16.40;58.00;;;;;;5042470;28;20547;-76
2022/05/15 03:38:38;;;;;;;;;;;16.40;58.00;;;;;;5041848;28;19935;-74
2022/05/15 03:41:05;;;;;;;;;;;16.30;58.10;;;;;;5041547;28;19932;-74
2022/05/15 03:43:31;;;;;;;;;;;16.30;58.10;;;;;;5038786;28;19936;-73
2022/05/15 03:45:58;;;;;;;;;;;16.30;58.30;;;;;;5039733;28;19980;-74
2022/05/15 03:48:24;;;;;;;;;;;16.30;58.30;;;;;;5039830;28;19940;-74
2022/05/15 03:50:51;;;;;;;;;;;16.20;58.30;;;;;;5037353;28;19940;-73
2022/05/15 03:53:17;;;;;;;;;;;16.20;58.40;;;;;;5039644;28;19933;-73
2022/05/15 03:55:45;;;;;;;;;;;16.20;58.50;;;;;;5040882;28;19932;-76
2022/05/15 03:58:12;;;;;;;;;;;16.10;58.50;;;;;;5038543;28;20073;-73
2022/05/15 04:00:39;;;;;;;;;;;16.10;58.60;;;;;;5036986;28;19944;-74
2022/05/15 04:03:05;;;;;;;;;;;16.10;58.50;;;;;;5042258;28;19940;-74
2022/05/15 04:05:32;;;;;;;;;;;16.10;58.60;;;;;;5036885;28;19936;-76
2022/05/15 04:07:59;;;;;;;;;;;16.10;58.70;;;;;;5038379;28;20019;-75
2022/05/15 04:10:26;;;;;;;;;;;16.00;58.70;;;;;;5038746;28;20392;-73
2022/05/15 04:12:54;;;;;;;;;;;16.00;58.70;;;;;;5035414;28;19948;-75
2022/05/15 04:15:20;;;;;;;;;;;15.90;58.70;;;;;;5039846;28;19936;-74
2022/05/15 04:17:49;;;;;;;;;;;15.90;58.80;;;;;;5038106;28;19951;-74
2022/05/15 04:20:17;;;;;;;;;;;15.90;58.90;;;;;;5045068;28;20536;-75
2022/05/15 04:22:44;;;;;;;;;;;15.90;58.90;;;;;;5057949;28;19932;-74
2022/05/15 04:25:11;;;;;;;;;;;15.90;59.00;;;;;;5055535;28;19932;-74
2022/05/15 04:27:38;;;;;;;;;;;15.80;59.10;;;;;;5055902;28;19971;-74
2022/05/15 04:30:07;;;;;;;;;;;15.90;59.30;;;;;;5056893;28;19940;-74
2022/05/15 04:32:34;;;;;;;;;;;15.80;59.30;;;;;;5055555;28;19936;-75
2022/05/15 04:35:00;;;;;;;;;;;15.80;59.30;;;;;;5058333;28;20428;-75
2022/05/15 04:37:27;;;;;;;;;;;15.80;59.40;;;;;;5056901;28;20292;-73
2022/05/15 04:39:53;;;;;;;;;;;15.70;59.50;;;;;;5056820;28;19933;-76
2022/05/15 04:42:20;;;;;;;;;;;15.70;59.60;;;;;;5058492;28;19935;-74
2022/05/15 04:44:46;;;;;;;;;;;15.70;59.60;;;;;;5055721;28;19936;-74
2022/05/15 04:47:14;;;;;;;;;;;15.70;59.80;;;;;;5040893;28;19932;-75
2022/05/15 04:49:41;;;;;;;;;;;15.60;59.70;;;;;;5040713;28;19931;-76
2022/05/15 04:52:08;;;;;;;;;;;15.60;59.80;;;;;;5038578;28;20639;-75
2022/05/15 04:54:34;;;;;;;;;;;15.60;59.80;;;;;;5039329;28;19929;-74
2022/05/15 04:57:01;;;;;;;;;;;15.60;60.10;;;;;;5038845;28;20410;-76
2022/05/15 04:59:27;;;;;;;;;;;15.60;60.20;;;;;;5040496;28;19929;-73
2022/05/15 05:01:54;;;;;;;;;;;15.60;60.30;;;;;;5049777;28;19935;-75
2022/05/15 05:04:22;;;;;;;;;;;15.50;60.40;;;;;;5060618;28;19928;-74
2022/05/15 05:06:49;;;;;;;;;;;15.50;60.50;;;;;;5058026;28;21155;-75
2022/05/15 05:09:16;;;;;;;;;;;15.50;60.60;;;;;;5058222;28;20466;-73
2022/05/15 05:11:42;;;;;;;;;;;15.50;60.60;;;;;;5058190;28;19924;-74
2022/05/15 05:14:09;;;;;;;;;;;15.50;60.80;;;;;;5056770;28;20050;-76
2022/05/15 05:16:36;;;;;;;;;;;15.50;60.90;;;;;;5045023;28;19932;-74
2022/05/15 05:19:03;;;;;;;;;;;15.50;61.20;;;;;;5037911;28;19937;-73
2022/05/15 05:21:31;;;;;;;;;;;15.50;61.20;;;;;;5037643;28;19940;-74
2022/05/15 05:23:58;;;;;;;;;;;15.40;61.30;;;;;;5037746;28;19936;-75
2022/05/15 05:26:24;;;;;;;;;;;15.40;61.30;;;;;;5038941;28;20421;-74
2022/05/15 05:28:51;;;;;;;;;;;15.40;61.40;;;;;;5036036;28;20312;-73
2022/05/15 05:31:17;;;;;;;;;;;15.40;61.50;;;;;;5034298;28;19929;-74
2022/05/15 05:33:44;;;;;;;;;;;15.40;61.60;;;;;;5041021;28;19929;-75
2022/05/15 05:36:11;;;;;;;;;;;15.40;61.70;;;;;;5040244;28;19936;-74
2022/05/15 05:38:39;;;;;;;;;;;15.40;61.80;;;;;;5035036;28;19983;-73
2022/05/15 05:41:06;;;;;;;;;;;15.40;61.90;;;;;;5036530;28;19940;-73
2022/05/15 05:43:32;;;;;;;;;;;15.40;61.90;;;;;;5034566;28;19933;-75
2022/05/15 05:45:59;;;;;;;;;;;15.40;61.90;;;;;;5035809;28;20368;-75
2022/05/15 05:48:26;;;;;;;;;;;15.40;61.90;;;;;;5037027;28;19940;-73
2022/05/15 05:50:53;;;;;;;;;;;15.40;61.90;;;;;;5037271;28;19929;-75
2022/05/15 05:53:19;;;;;;;;;;;15.40;61.90;;;;;;5037489;28;19928;-74
2022/05/15 05:55:47;;;;;;;;;;;15.40;62.00;;;;;;5036631;28;20392;-75
2022/05/15 05:58:14;;;;;;;;;;;15.40;61.90;;;;;;5038347;28;19932;-74
2022/05/15 06:00:40;;;;;;;;;;;15.40;61.90;;;;;;5041929;28;19928;-74
2022/05/15 06:05:52;;;;;;;;;;;15.40;62.00;;;;;;5057868;28;20057;-73
2022/05/15 06:08:19;;;;;;;;;;;15.50;62.10;;;;;;5052417;28;19932;-74
2022/05/15 06:10:47;;;;;;;;;;;15.40;62.10;;;;;;5055913;28;20438;-74
2022/05/15 06:13:14;;;;;;;;;;;15.50;62.30;;;;;;5054502;28;19936;-74
2022/05/15 06:15:41;;;;;;;;;;;15.50;62.40;;;;;;5049070;28;19933;-76
2022/05/15 06:18:08;;;;;;;;;;;15.50;62.40;;;;;;5034611;28;20046;-74
2022/05/15 06:20:34;;;;;;;;;;;15.50;63.10;;;;;;5037397;28;20642;-74
2022/05/15 06:23:01;;;;;;;;;;;15.50;62.40;;;;;;5036587;28;19955;-74
2022/05/15 06:25:27;;;;;;;;;;;15.50;62.40;;;;;;5037225;28;19940;-75
2022/05/15 06:27:55;;;;;;;;;;;15.50;62.50;;;;;;5037134;28;19929;-74
2022/05/15 06:30:22;;;;;;;;;;;15.50;62.40;;;;;;5036605;28;20002;-74
2022/05/15 06:32:48;;;;;;;;;;;15.60;62.50;;;;;;5037933;28;19929;-75
2022/05/15 06:35:16;;;;;;;;;;;15.60;62.50;;;;;;5037264;28;19929;-75
2022/05/15 06:37:43;;;;;;;;;;;15.50;62.40;;;;;;5035462;28;19924;-74
2022/05/15 06:40:10;;;;;;;;;;;15.60;62.30;;;;;;5035882;28;19929;-74
2022/05/15 06:42:37;;;;;;;;;;;15.60;62.40;;;;;;5038814;28;19929;-74
2022/05/15 06:45:06;;;;;;;;;;;15.70;62.60;;;;;;5035619;28;19935;-76
2022/05/15 06:47:33;;;;;;;;;;;15.70;62.60;;;;;;5055337;28;19935;-74
2022/05/15 06:50:00;;;;;;;;;;;15.70;62.60;;;;;;5052262;28;19932;-73
2022/05/15 06:52:27;;;;;;;;;;;15.70;62.60;;;;;;5051841;28;19935;-74
2022/05/15 06:54:54;;;;;;;;;;;15.80;63.60;;;;;;5057098;28;20308;-73
2022/05/15 06:57:28;;;;;;;;;;;15.80;62.90;;;;;;5058185;28;19928;-73
2022/05/15 06:59:55;;;;;;;;;;;15.80;63.00;;;;;;5058348;28;19932;-73
2022/05/15 07:02:23;;;;;;;;;;;15.80;63.00;;;;;;5039801;28;20027;-74
2022/05/15 07:04:50;;;;;;;;;;;15.90;62.80;;;;;;5038701;28;19933;-73
2022/05/15 07:07:16;;;;;;;;;;;15.90;62.70;;;;;;5042152;28;20408;-74
2022/05/15 07:09:43;;;;;;;;;;;15.90;63.30;;;;;;5040304;28;19940;-74
2022/05/15 07:12:09;;;;;;;;;;;15.90;63.20;;;;;;5039772;28;19932;-76
2022/05/15 07:14:36;;;;;;;;;;;15.90;63.30;;;;;;5039058;28;19940;-73
2022/05/15 07:17:03;;;;;;;;;;;16.00;63.50;;;;;;5035412;28;21610;-73
2022/05/15 07:19:31;;;;;;;;;;;16.00;63.40;;;;;;5041726;28;19932;-74
2022/05/15 07:21:57;;;;;;;;;;;16.00;63.70;;;;;;5039391;28;19929;-73
2022/05/15 07:24:25;;;;;;;;;;;16.00;64.00;;;;;;5042239;28;19929;-74
2022/05/15 07:26:52;;;;;;;;;;;16.10;64.00;;;;;;5038228;28;20667;-73
2022/05/15 07:29:20;;;;;;;;;;;16.10;63.90;;;;;;5040491;28;19936;-75
2022/05/15 07:31:47;;;;;;;;;;;16.10;63.90;;;;;;5039853;28;19933;-74
2022/05/15 07:34:13;;;;;;;;;;;16.20;64.20;;;;;;5037850;28;20015;-77
2022/05/15 07:36:41;;;;;;;;;;;16.20;64.40;;;;;;5039595;28;19932;-74
2022/05/15 07:39:08;;;;;;;;;;;16.20;64.40;;;;;;5041992;28;19932;-75
2022/05/15 07:41:34;;;;;;;;;;;16.30;64.30;;;;;;5042437;28;19932;-76
2022/05/15 07:44:01;;;;;;;;;;;16.30;64.40;;;;;;5038747;28;19929;-78
2022/05/15 07:46:28;;;;;;;;;;;16.30;65.20;;;;;;5048145;28;19982;-77
2022/05/15 07:48:55;;;;;;;;;;;16.40;66.00;;;;;;5058909;28;19935;-69
2022/05/15 07:51:22;;;;;;;;;;;16.50;65.70;;;;;;5058278;28;20078;-65
2022/05/15 07:53:50;;;;;;;;;;;16.50;65.60;;;;;;5054569;28;19928;-66
2022/05/15 07:56:16;;;;;;;;;;;16.50;65.40;;;;;;5057390;28;20428;-69
2022/05/15 07:58:43;;;;;;;;;;;16.60;65.70;;;;;;5060320;28;19933;-72
2022/05/15 08:01:09;;;;;;;;;;;16.60;65.40;;;;;;5056426;28;19928;-68
2022/05/15 08:03:42;;;;;;;;;;;16.60;65.30;;;;;;5060259;28;20567;-68
2022/05/15 08:08:55;;;;;;;;;;;16.70;65.50;;;;;;5059548;28;19936;-64
2022/05/15 08:11:26;;;;;;;;;;;16.70;65.30;;;;;;5055362;28;19940;-67
2022/05/15 08:13:53;;;;;;;;;;;16.70;65.50;;;;;;5060437;28;20308;-67
2022/05/15 08:16:19;;;;;;;;;;;16.80;65.60;;;;;;5061726;28;19932;-67
2022/05/15 08:24:15;;;;;;;;;;;16.90;65.40;;;;;;5056071;28;20517;-68
2022/05/15 08:26:44;;;;;;;;;;;16.90;65.20;;;;;;5057919;28;19924;-74
2022/05/15 08:29:11;;;;;;;;;;;17.00;65.20;;;;;;5061554;28;20001;-66
2022/05/15 08:31:38;;;;;;;;;;;17.10;65.10;;;;;;5056656;28;20019;-68
2022/05/15 08:34:05;;;;;;;;;;;17.10;65.00;;;;;;5057622;28;19940;-66
2022/05/15 08:36:32;;;;;;;;;;;17.10;64.80;;;;;;5052459;28;20716;-64
2022/05/15 08:38:59;;;;;;;;;;;17.20;64.80;;;;;;5058982;28;20308;-68
2022/05/15 08:41:36;;;;;;;;;;;17.20;64.50;;;;;;5062127;28;19929;-68
2022/05/15 08:44:06;;;;;;;;;;;17.30;64.50;;;;;;5058800;28;19939;-67
2022/05/15 08:46:36;;;;;;;;;;;17.30;64.50;;;;;;5060094;28;20555;-64
2022/05/15 08:49:07;;;;;;;;;;;17.40;65.30;;;;;;5056949;28;19973;-65
2022/05/15 08:51:34;;;;;;;;;;;17.40;64.40;;;;;;5056534;28;20098;-68
2022/05/15 08:54:01;;;;;;;;;;;17.50;64.40;;;;;;5058722;28;20029;-70
2022/05/15 08:56:30;;;;;;;;;;;17.60;64.40;;;;;;5057741;28;19940;-69
2022/05/15 08:58:58;;;;;;;;;;;17.60;64.30;;;;;;5061009;28;20024;-67
2022/05/15 09:01:27;;;;;;;;;;;17.70;64.30;;;;;;5058611;28;20307;-66
2022/05/15 09:03:54;;;;;;;;;;;17.70;64.10;;;;;;5060253;28;19928;-65
2022/05/15 09:06:25;;;;;;;;;;;17.70;63.80;;;;;;5058979;28;19928;-67
2022/05/15 09:08:57;;;;;;;;;;;17.80;63.80;;;;;;5061274;28;19935;-67
2022/05/15 09:11:34;;;;;;;;;;;17.90;64.00;;;;;;5060699;28;19929;-64
2022/05/15 09:14:07;;;;;;;;;;;17.90;63.60;;;;;;5058908;28;19935;-68
2022/05/15 09:16:35;;;;;;;;;;;18.00;63.40;;;;;;5057820;28;19929;-70
2022/05/15 09:19:02;;;;;;;;;;;18.10;63.10;;;;;;5060702;28;20354;-66
2022/05/15 09:21:29;;;;;;;;;;;18.20;62.80;;;;;;5061726;28;20499;-66
2022/05/15 09:23:58;;;;;;;;;;;18.20;62.50;;;;;;5055836;28;19954;-68
2022/05/15 09:26:27;;;;;;;;;;;18.30;62.50;;;;;;5056257;28;19939;-70
2022/05/15 09:28:58;;;;;;;;;;;18.30;62.20;;;;;;5057584;28;20604;-65
2022/05/15 09:31:27;;;;;;;;;;;18.40;62.20;;;;;;5052880;28;19932;-69
2022/05/15 09:33:55;;;;;;;;;;;18.50;61.90;;;;;;5056925;28;20743;-70
2022/05/15 09:36:23;;;;;;;;;;;18.50;61.60;;;;;;5058597;28;19928;-66
2022/05/15 09:38:50;;;;;;;;;;;18.60;61.40;;;;;;5059189;28;19932;-67
2022/05/15 09:44:04;;;;;;;;;;;18.80;60.60;;;;;;5054287;28;20016;-68
2022/05/15 09:46:30;;;;;;;;;;;18.90;60.60;;;;;;5057587;28;19928;-68
2022/05/15 09:48:59;;;;;;;;;;;19.00;60.60;;;;;;5049169;28;19959;-64
2022/05/15 09:51:27;;;;;;;;;;;19.00;60.20;;;;;;5054163;28;19956;-66
2022/05/15 09:53:55;;;;;;;;;;;19.10;59.90;;;;;;5057632;28;19928;-71
2022/05/15 09:56:28;;;;;;;;;;;19.20;59.50;;;;;;5055833;28;19939;-66
2022/05/15 09:58:57;;;;;;;;;;;19.30;59.30;;;;;;5054740;28;20063;-66
2022/05/15 10:01:27;;;;;;;;;;;19.30;59.00;;;;;;5056392;28;19928;-68
2022/05/15 10:03:55;;;;;;;;;;;19.40;58.80;;;;;;5058442;28;20005;-72
2022/05/15 10:06:23;;;;;;;;;;;19.50;58.80;;;;;;5057755;28;20034;-68
2022/05/15 10:09:06;;;;;;;;;;;19.60;58.60;;;;;;5059254;28;19928;-70
2022/05/15 10:11:35;;;;;;;;;;;19.70;58.30;;;;;;5056815;28;21335;-72
2022/05/15 10:14:02;;;;;;;;;;;19.80;58.10;;;;;;5057818;28;20021;-73
2022/05/15 10:16:32;;;;;;;;;;;19.80;58.00;;;;;;5053076;28;19935;-64
2022/05/15 10:19:01;;;;;;;;;;;19.90;57.70;;;;;;5055607;28;20311;-67
2022/05/15 10:21:32;;;;;;;;;;;20.00;57.50;;;;;;5059025;28;19971;-71
2022/05/15 10:24:01;;;;;;;;;;;20.10;57.30;;;;;;5054112;28;20555;-68
2022/05/15 10:26:31;;;;;;;;;;;20.20;56.90;;;;;;5055677;28;19939;-69
2022/05/15 10:29:00;;;;;;;;;;;20.30;56.60;;;;;;5056181;28;19929;-67
2022/05/15 10:31:31;;;;;;;;;;;20.40;56.40;;;;;;5060512;28;19928;-69
2022/05/15 10:34:00;;;;;;;;;;;20.40;56.40;;;;;;5061532;28;20304;-68
2022/05/15 10:36:44;;;;;;;;;;;20.50;56.40;;;;;;5063680;28;19939;-71
2022/05/15 10:39:16;;;;;;;;;;;20.60;56.90;;;;;;5050158;28;20396;-71
2022/05/15 10:41:47;;;;;;;;;;;20.70;56.30;;;;;;5064551;28;20590;-73
2022/05/15 10:44:22;;;;;;;;;;;20.80;55.90;;;;;;5054814;28;19932;-71
2022/05/15 10:46:50;;;;;;;;;;;20.90;55.80;;;;;;5060377;28;19929;-66
2022/05/15 10:49:27;;;;;;;;;;;21.00;55.40;;;;;;5062608;28;20411;-68
2022/05/15 10:51:59;;;;;;;;;;;21.00;55.00;;;;;;5054754;28;19928;-70
2022/05/15 10:57:29;;;;;;;;;;;21.20;54.60;;;;;;5064096;28;19974;-67
2022/05/15 11:00:00;;;;;;;;;;;21.30;54.40;;;;;;5052736;28;19928;-66
2022/05/15 11:02:36;;;;;;;;;;;21.30;54.10;;;;;;5057777;28;19935;-69
2022/05/15 11:05:08;;;;;;;;;;;21.40;54.10;;;;;;5060483;28;19932;-70
2022/05/15 11:07:39;;;;;;;;;;;21.50;53.80;;;;;;5061770;28;19929;-68
2022/05/15 11:10:09;;;;;;;;;;;21.60;53.60;;;;;;5059709;28;20308;-67
2022/05/15 11:12:38;;;;;;;;;;;21.60;53.40;;;;;;5062040;28;19928;-70
2022/05/15 11:15:12;;;;;;;;;;;21.70;53.40;;;;;;5060073;28;19925;-72
2022/05/15 11:17:43;;;;;;;;;;;21.80;53.30;;;;;;5060645;28;20527;-73
2022/05/15 11:20:14;;;;;;;;;;;21.80;53.10;;;;;;5063909;28;19932;-69
2022/05/15 11:22:45;;;;;;;;;;;21.90;53.10;;;;;;5064274;28;19928;-69
2022/05/15 11:25:13;;;;;;;;;;;22.00;53.00;;;;;;5061691;28;19929;-69
2022/05/15 11:27:44;;;;;;;;;;;22.10;53.00;;;;;;5063811;28;19963;-68
2022/05/15 11:30:12;;;;;;;;;;;22.20;52.60;;;;;;5058472;28;19943;-67
2022/05/15 11:32:40;;;;;;;;;;;22.30;52.20;;;;;;5058392;28;19982;-68
2022/05/15 11:35:22;;;;;;;;;;;22.30;51.80;;;;;;5061807;28;20403;-69
2022/05/15 11:37:53;;;;;;;;;;;22.40;51.80;;;;;;5060111;28;19939;-71
2022/05/15 11:40:29;;;;;;;;;;;22.40;51.80;;;;;;5063003;28;19928;-68
2022/05/15 11:42:56;;;;;;;;;;;22.60;51.80;;;;;;5058921;28;19935;-68
2022/05/15 11:45:38;;;;;;;;;;;22.60;51.50;;;;;;5061768;28;20340;-71
2022/05/15 11:48:14;;;;;;;;;;;22.70;51.30;;;;;;5053795;28;20408;-69
2022/05/15 11:50:50;;;;;;;;;;;22.80;51.10;;;;;;5058738;28;19933;-65
2022/05/15 11:53:24;;;;;;;;;;;22.80;51.10;;;;;;5054426;28;20625;-70
2022/05/15 11:55:51;;;;;;;;;;;22.90;50.80;;;;;;5054884;28;20334;-66
2022/05/15 11:58:32;;;;;;;;;;;23.00;50.60;;;;;;5054122;28;19935;-69
2022/05/15 12:01:00;;;;;;;;;;;23.00;50.50;;;;;;5058512;28;19936;-66
2022/05/15 12:03:29;;;;;;;;;;;23.10;50.40;;;;;;5062810;28;19929;-67
2022/05/15 12:06:03;;;;;;;;;;;23.20;50.30;;;;;;5062264;28;20021;-67
2022/05/15 12:08:31;;;;;;;;;;;23.20;50.10;;;;;;5057366;28;19929;-65
2022/05/15 12:10:59;;;;;;;;;;;23.30;50.00;;;;;;5057980;28;19935;-70
2022/05/15 12:13:38;;;;;;;;;;;23.40;50.20;;;;;;5057415;28;20018;-66
2022/05/15 12:16:19;;;;;;;;;;;23.40;50.00;;;;;;5060059;28;19964;-71
2022/05/15 12:18:47;;;;;;;;;;;23.50;49.90;;;;;;5057785;28;19935;-69
2022/05/15 12:21:17;;;;;;;;;;;23.60;50.00;;;;;;5058464;28;19936;-70
2022/05/15 12:24:27;;;;;;;;;;;23.60;49.50;;;;;;5056420;28;19949;-69
2022/05/15 12:26:36;;;;;;;;;;;23.70;49.40;;;;;;5057901;28;19928;-67
2022/05/15 12:29:06;;;;;;;;;;;23.80;49.70;;;;;;5061944;28;19937;-69
2022/05/15 12:31:37;;;;;;;;;;;23.80;49.40;;;;;;5057000;28;19931;-69
2022/05/15 12:34:08;;;;;;;;;;;23.90;49.40;;;;;;5056877;28;19933;-69
2022/05/15 12:36:37;;;;;;;;;;;23.90;49.10;;;;;;5053069;28;19932;-67
2022/05/15 12:39:04;;;;;;;;;;;24.00;49.20;;;;;;5059666;28;20273;-67
2022/05/15 12:41:35;;;;;;;;;;;24.10;49.10;;;;;;5050938;28;19932;-74
2022/05/15 12:44:03;;;;;;;;;;;24.20;49.00;;;;;;5060390;28;19928;-69
2022/05/15 12:46:31;;;;;;;;;;;24.20;48.90;;;;;;5060019;28;19932;-69
2022/05/15 12:48:58;;;;;;;;;;;24.30;48.70;;;;;;5060363;28;20019;-71
2022/05/15 12:51:26;;;;;;;;;;;24.30;48.80;;;;;;5060369;28;19933;-68
2022/05/15 12:53:54;;;;;;;;;;;24.30;48.60;;;;;;5058641;28;19937;-65
2022/05/15 12:56:24;;;;;;;;;;;24.40;48.60;;;;;;5058985;28;19936;-68
2022/05/15 12:58:52;;;;;;;;;;;24.50;48.70;;;;;;5054084;28;19980;-66
2022/05/15 13:01:19;;;;;;;;;;;24.50;48.50;;;;;;5055946;28;20474;-70
2022/05/15 13:03:49;;;;;;;;;;;24.60;48.30;;;;;;5058426;28;19928;-69
2022/05/15 13:06:18;;;;;;;;;;;24.70;48.40;;;;;;5059564;28;19932;-73
2022/05/15 13:08:46;;;;;;;;;;;24.70;48.40;;;;;;5057528;28;20828;-70
2022/05/15 13:11:18;;;;;;;;;;;24.80;48.10;;;;;;5060452;28;19928;-72
2022/05/15 13:13:45;;;;;;;;;;;24.90;48.10;;;;;;5055681;28;20355;-74
2022/05/15 13:16:17;;;;;;;;;;;24.90;47.90;;;;;;5053899;28;19936;-70
2022/05/15 13:18:45;;;;;;;;;;;25.00;47.70;;;;;;5057053;28;19932;-68
2022/05/15 13:21:12;;;;;;;;;;;25.10;48.00;;;;;;5057377;28;19968;-67
2022/05/15 13:23:41;;;;;;;;;;;25.10;47.50;;;;;;5056114;28;19929;-68
2022/05/15 13:26:09;;;;;;;;;;;25.20;47.10;;;;;;5054455;28;19933;-70
2022/05/15 13:28:37;;;;;;;;;;;25.30;47.10;;;;;;5054234;28;19932;-69
2022/05/15 13:31:04;;;;;;;;;;;25.30;47.10;;;;;;5054707;28;19928;-68
2022/05/15 13:33:32;;;;;;;;;;;25.40;46.90;;;;;;5060243;28;19979;-71
2022/05/15 13:36:00;;;;;;;;;;;25.40;46.70;;;;;;5060431;28;20349;-72
2022/05/15 13:38:28;;;;;;;;;;;25.50;46.80;;;;;;5058315;28;19971;-67
2022/05/15 13:43:51;;;;;;;;;;;25.70;46.70;;;;;;5057576;28;20423;-69
2022/05/15 13:46:22;;;;;;;;;;;25.70;46.50;;;;;;5053326;28;19928;-67
2022/05/15 13:48:53;;;;;;;;;;;25.80;46.50;;;;;;5058948;28;19929;-70
2022/05/15 13:51:31;;;;;;;;;;;25.90;46.20;;;;;;5058018;28;20018;-71
2022/05/15 13:54:12;;;;;;;;;;;25.90;46.00;;;;;;5059579;28;19932;-71
2022/05/15 13:56:39;;;;;;;;;;;26.00;45.90;;;;;;5053159;28;20010;-70
2022/05/15 13:59:28;;;;;;;;;;;26.10;45.70;;;;;;5055320;28;19933;-69
2022/05/15 14:02:04;;;;;;;;;;;26.10;45.30;;;;;;5057807;28;19932;-68
2022/05/15 14:04:31;;;;;;;;;;;26.20;45.00;;;;;;5057494;28;19955;-69
2022/05/15 14:06:58;;;;;;;;;;;26.30;45.70;;;;;;5063329;28;20045;-73
2022/05/15 14:09:26;;;;;;;;;;;26.40;45.10;;;;;;5062906;28;19928;-68
2022/05/15 14:11:54;;;;;;;;;;;26.50;45.10;;;;;;5063523;28;20304;-66
2022/05/15 14:14:36;;;;;;;;;;;26.50;44.80;;;;;;5058187;28;19933;-68
2022/05/15 14:17:04;;;;;;;;;;;26.60;44.80;;;;;;5054938;28;19936;-70
2022/05/15 14:19:31;;;;;;;;;;;26.70;44.60;;;;;;5062838;28;20087;-69
2022/05/15 14:21:59;;;;;;;;;;;26.70;44.40;;;;;;5060410;28;19932;-69
2022/05/15 14:24:26;;;;;;;;;;;26.80;44.20;;;;;;5058477;28;20336;-68
2022/05/15 14:26:52;;;;;;;;;;;26.90;44.30;;;;;;5059825;28;20019;-65
2022/05/15 14:29:19;;;;;;;;;;;26.90;44.80;;;;;;5063066;28;20293;-71
2022/05/15 14:31:46;;;;;;;;;;;27.00;43.80;;;;;;5062977;28;20482;-70
2022/05/15 14:34:14;;;;;;;;;;;27.10;43.70;;;;;;5061474;28;19936;-69
2022/05/15 14:36:41;;;;;;;;;;;27.10;43.80;;;;;;5063297;28;19939;-66
2022/05/15 14:39:08;;;;;;;;;;;27.20;43.50;;;;;;5056907;28;20411;-69
2022/05/15 14:41:36;;;;;;;;;;;27.30;43.50;;;;;;5063075;28;19929;-68
2022/05/15 14:44:03;;;;;;;;;;;27.40;43.70;;;;;;5058785;28;20454;-72
2022/05/15 14:46:31;;;;;;;;;;;27.40;43.50;;;;;;5056730;28;19935;-71